createdAt,value
2022-10-08T00:01:07.642Z,11.10
2022-10-08T00:03:38.970Z,11.50
2022-10-08T00:06:16.499Z,11.20
2022-10-08T00:08:47.763Z,11.10
2022-10-08T00:11:17.899Z,11.20
2022-10-08T00:13:48.099Z,11.30
2022-10-08T00:16:30.261Z,11.70
2022-10-08T00:19:03.926Z,11.20
2022-10-08T00:21:38.699Z,11.20
2022-10-08T00:24:07.525Z,11.20
2022-10-08T00:26:39.774Z,11.20
2022-10-08T00:29:07.994Z,11.50
2022-10-08T00:31:38.452Z,11.30
2022-10-08T00:34:10.240Z,11.10
2022-10-08T00:36:38.855Z,11.10
2022-10-08T00:39:07.302Z,11.20
2022-10-08T00:41:38.684Z,10.80
2022-10-08T00:44:43.152Z,11.00
2022-10-08T00:47:46.341Z,10.90
2022-10-08T00:50:24.059Z,11.10
2022-10-08T00:53:06.025Z,11.00
2022-10-08T00:55:33.875Z,11.10
2022-10-08T00:58:09.862Z,11.00
2022-10-08T01:00:36.601Z,11.00
2022-10-08T01:03:03.895Z,11.20
2022-10-08T01:05:33.639Z,10.90
2022-10-08T01:08:16.094Z,11.00
2022-10-08T01:11:01.976Z,11.30
2022-10-08T01:13:49.246Z,11.00
2022-10-08T01:16:51.473Z,10.90
2022-10-08T01:19:45.636Z,10.80
2022-10-08T01:22:35.973Z,10.70
2022-10-08T01:25:34.551Z,10.50
2022-10-08T01:28:12.570Z,10.40
2022-10-08T01:30:48.740Z,10.30
2022-10-08T01:33:22.983Z,10.20
2022-10-08T01:35:54.544Z,10.30
2022-10-08T01:38:23.912Z,10.30
2022-10-08T01:40:53.048Z,10.20
2022-10-08T01:43:23.753Z,10.20
2022-10-08T01:45:57.218Z,10.20
2022-10-08T01:48:29.659Z,10.30
2022-10-08T01:51:04.953Z,10.20
2022-10-08T01:53:38.028Z,10.10
2022-10-08T01:56:07.803Z,10.00
2022-10-08T01:59:07.714Z,10.20
2022-10-08T02:02:13.206Z,10.10
2022-10-08T02:04:39.863Z,10.10
2022-10-08T02:07:16.468Z,10.20
2022-10-08T02:09:45.932Z,10.20
2022-10-08T02:12:14.345Z,10.10
2022-10-08T02:14:46.565Z,10.50
2022-10-08T02:17:15.971Z,10.70
2022-10-08T02:20:05.601Z,10.70
2022-10-08T02:22:45.095Z,10.30
2022-10-08T02:25:21.920Z,10.40
2022-10-08T02:28:06.732Z,10.50
2022-10-08T02:30:50.779Z,10.70
2022-10-08T02:33:28.681Z,10.70
2022-10-08T02:35:59.843Z,10.80
2022-10-08T02:38:40.699Z,10.70
2022-10-08T02:41:10.643Z,10.60
2022-10-08T02:43:42.413Z,10.90
2022-10-08T02:46:15.781Z,10.30
2022-10-08T02:48:46.850Z,11.20
2022-10-08T02:51:18.586Z,11.20
2022-10-08T02:53:47.696Z,10.70
2022-10-08T02:56:32.993Z,11.10
2022-10-08T02:59:00.205Z,10.30
2022-10-08T03:01:45.638Z,11.20
2022-10-08T03:04:23.945Z,11.90
2022-10-08T03:06:52.968Z,10.40
2022-10-08T03:09:21.994Z,10.70
2022-10-08T03:11:49.579Z,10.40
2022-10-08T03:14:19.603Z,10.40
2022-10-08T03:16:48.039Z,11.40
2022-10-08T03:19:17.621Z,11.60
2022-10-08T03:21:47.194Z,11.60
2022-10-08T03:24:15.025Z,11.50
2022-10-08T03:26:42.347Z,10.90
2022-10-08T03:29:10.069Z,10.60
2022-10-08T03:31:43.892Z,11.70
2022-10-08T03:34:10.624Z,11.10
2022-10-08T03:36:37.288Z,11.30
2022-10-08T03:39:04.307Z,11.20
2022-10-08T03:41:31.586Z,11.30
2022-10-08T03:43:59.537Z,11.10
2022-10-08T03:46:26.186Z,11.10
2022-10-08T03:48:52.873Z,11.20
2022-10-08T03:51:23.740Z,11.20
2022-10-08T03:53:50.506Z,11.80
2022-10-08T03:56:20.640Z,11.10
2022-10-08T03:58:57.891Z,12.10
2022-10-08T04:01:25.713Z,11.30
2022-10-08T04:03:52.718Z,11.90
2022-10-08T04:06:19.677Z,12.10
2022-10-08T04:08:46.612Z,10.80
2022-10-08T04:11:16.366Z,10.90
2022-10-08T04:13:44.066Z,11.10
2022-10-08T04:16:17.327Z,11.00
2022-10-08T04:18:44.843Z,11.20
2022-10-08T04:21:14.201Z,11.70
2022-10-08T04:23:42.354Z,11.60
2022-10-08T04:26:10.653Z,11.60
2022-10-08T04:28:39.285Z,11.10
2022-10-08T04:31:17.014Z,12.60
2022-10-08T04:33:45.030Z,11.30
2022-10-08T04:36:23.386Z,11.50
2022-10-08T04:38:50.824Z,11.30
2022-10-08T04:41:20.767Z,11.20
2022-10-08T04:43:47.689Z,11.40
2022-10-08T04:46:17.324Z,11.90
2022-10-08T04:48:49.312Z,11.30
2022-10-08T04:51:17.244Z,11.10
2022-10-08T04:53:44.443Z,11.20
2022-10-08T04:56:25.977Z,11.50
2022-10-08T04:58:55.196Z,11.20
2022-10-08T05:01:23.076Z,11.50
2022-10-08T05:03:51.799Z,11.60
2022-10-08T05:06:22.032Z,12.20
2022-10-08T05:08:49.303Z,12.00
2022-10-08T05:11:17.004Z,12.30
2022-10-08T05:13:48.672Z,11.90
2022-10-08T05:16:17.222Z,11.80
2022-10-08T05:18:45.023Z,11.80
2022-10-08T05:21:14.558Z,12.20
2022-10-08T05:23:45.001Z,12.00
2022-10-08T05:26:14.507Z,11.90
2022-10-08T05:28:41.595Z,12.10
2022-10-08T05:31:08.487Z,12.90
2022-10-08T05:33:36.335Z,12.00
2022-10-08T05:36:05.323Z,12.10
2022-10-08T05:38:35.194Z,12.00
2022-10-08T05:41:14.453Z,12.00
2022-10-08T05:43:41.497Z,12.10
2022-10-08T05:46:08.300Z,12.10
2022-10-08T05:48:35.672Z,12.40
2022-10-08T05:51:11.117Z,12.60
2022-10-08T05:53:39.972Z,12.70
2022-10-08T05:56:09.148Z,12.30
2022-10-08T05:58:39.393Z,12.30
2022-10-08T06:01:12.871Z,12.20
2022-10-08T06:03:39.695Z,12.20
2022-10-08T06:06:09.400Z,12.60
2022-10-08T06:08:37.125Z,12.20
2022-10-08T06:11:05.838Z,12.40
2022-10-08T06:13:32.732Z,12.30
2022-10-08T06:16:01.297Z,12.30
2022-10-08T06:18:31.313Z,12.70
2022-10-08T06:21:01.497Z,12.60
2022-10-08T06:23:28.146Z,12.80
2022-10-08T06:25:54.987Z,13.20
2022-10-08T06:28:21.710Z,12.70
2022-10-08T06:30:48.388Z,13.00
2022-10-08T06:33:16.880Z,14.10
2022-10-08T06:35:43.671Z,13.40
2022-10-08T06:38:10.337Z,12.60
2022-10-08T06:40:39.352Z,12.80
2022-10-08T06:43:07.835Z,12.60
2022-10-08T06:45:39.351Z,12.60
2022-10-08T06:48:06.242Z,12.60
2022-10-08T06:50:34.179Z,12.70
2022-10-08T06:53:01.642Z,12.80
2022-10-08T06:55:28.303Z,13.20
2022-10-08T06:57:55.036Z,13.10
2022-10-08T07:00:25.923Z,12.70
2022-10-08T07:02:53.123Z,12.70
2022-10-08T07:05:20.290Z,12.80
2022-10-08T07:07:46.949Z,13.10
2022-10-08T07:10:16.602Z,13.60
2022-10-08T07:12:45.642Z,12.90
2022-10-08T07:15:12.691Z,13.00
2022-10-08T07:17:39.561Z,13.00
2022-10-08T07:20:06.995Z,13.00
2022-10-08T07:22:33.691Z,12.90
2022-10-08T07:25:01.529Z,13.10
2022-10-08T07:27:28.309Z,13.20
2022-10-08T07:29:54.995Z,13.10
2022-10-08T07:32:21.754Z,13.20
2022-10-08T07:34:48.432Z,14.00
2022-10-08T07:37:15.107Z,13.40
2022-10-08T07:39:41.893Z,14.00
2022-10-08T07:42:08.614Z,13.40
2022-10-08T07:44:35.292Z,13.40
2022-10-08T07:47:02.001Z,13.50
2022-10-08T07:49:28.768Z,13.50
2022-10-08T07:51:55.487Z,13.40
2022-10-08T07:54:22.653Z,13.80
2022-10-08T07:56:50.036Z,14.10
2022-10-08T07:59:16.781Z,14.40
2022-10-08T08:01:44.009Z,13.70
2022-10-08T08:04:11.605Z,13.80
2022-10-08T08:06:41.967Z,13.80
2022-10-08T08:09:09.697Z,13.90
2022-10-08T08:11:37.262Z,13.90
2022-10-08T08:14:04.090Z,14.80
2022-10-08T08:16:30.909Z,14.40
2022-10-08T08:18:59.965Z,14.50
2022-10-08T08:21:30.268Z,13.90
2022-10-08T08:23:58.794Z,14.10
2022-10-08T08:26:29.021Z,14.10
2022-10-08T08:28:58.658Z,14.10
2022-10-08T08:31:28.805Z,14.20
2022-10-08T08:33:58.665Z,14.20
2022-10-08T08:36:27.739Z,14.30
2022-10-08T08:38:54.668Z,14.30
2022-10-08T08:42:00.233Z,14.60
2022-10-08T08:45:02.390Z,14.50
2022-10-08T08:47:39.760Z,14.50
2022-10-08T08:50:08.603Z,14.60
2022-10-08T08:52:40.372Z,14.70
2022-10-08T08:55:15.683Z,14.70
2022-10-08T08:58:00.180Z,14.70
2022-10-08T09:00:36.083Z,14.80
2022-10-08T09:03:10.980Z,14.80
2022-10-08T09:05:42.941Z,15.00
2022-10-08T09:08:29.655Z,15.00
2022-10-08T09:11:05.503Z,15.10
2022-10-08T09:13:56.565Z,15.10
2022-10-08T09:16:25.325Z,15.10
2022-10-08T09:18:52.282Z,15.30
2022-10-08T09:21:20.468Z,15.20
2022-10-08T09:23:47.941Z,15.30
2022-10-08T09:26:19.377Z,15.20
2022-10-08T09:28:47.686Z,15.20
2022-10-08T09:31:26.830Z,15.30
2022-10-08T09:34:04.692Z,15.40
2022-10-08T09:36:38.263Z,15.50
2022-10-08T09:39:15.310Z,15.40
2022-10-08T09:41:44.134Z,15.70
2022-10-08T09:44:20.285Z,15.50
2022-10-08T09:46:48.051Z,15.60
2022-10-08T09:49:35.089Z,15.70
2022-10-08T09:52:25.962Z,15.80
2022-10-08T09:55:02.738Z,15.80
2022-10-08T09:57:30.656Z,15.80
2022-10-08T10:00:00.005Z,15.70
2022-10-08T10:02:31.381Z,15.60
2022-10-08T10:05:00.497Z,15.80
2022-10-08T10:07:44.876Z,15.90
2022-10-08T10:10:28.759Z,15.80
2022-10-08T10:13:10.180Z,15.90
2022-10-08T10:16:01.868Z,15.90
2022-10-08T10:18:43.049Z,16.00
2022-10-08T10:21:17.708Z,16.00
2022-10-08T10:23:54.761Z,15.90
2022-10-08T10:26:29.434Z,16.00
2022-10-08T10:28:59.384Z,16.00
2022-10-08T10:31:54.729Z,16.00
2022-10-08T10:34:27.609Z,16.10
2022-10-08T10:37:00.951Z,16.10
2022-10-08T10:39:36.630Z,16.20
2022-10-08T10:42:21.003Z,16.20
2022-10-08T10:44:56.565Z,16.20
2022-10-08T10:47:30.927Z,16.10
2022-10-08T10:50:01.157Z,16.10
2022-10-08T10:53:02.225Z,16.20
2022-10-08T10:55:38.991Z,16.10
2022-10-08T10:58:30.994Z,16.00
2022-10-08T11:01:03.756Z,16.00
2022-10-08T11:03:49.880Z,16.00
2022-10-08T11:06:31.724Z,16.00
2022-10-08T11:09:39.742Z,15.90
2022-10-08T11:12:24.852Z,16.00
2022-10-08T11:15:15.591Z,15.90
2022-10-08T11:17:58.930Z,15.90
2022-10-08T11:20:37.940Z,15.80
2022-10-08T11:23:17.106Z,15.70
2022-10-08T11:26:20.782Z,15.60
2022-10-08T11:29:09.739Z,15.50
2022-10-08T11:31:46.553Z,15.30
2022-10-08T11:34:33.952Z,15.30
2022-10-08T11:37:15.665Z,15.30
2022-10-08T11:40:05.538Z,15.30
2022-10-08T11:42:45.033Z,15.30
2022-10-08T11:45:28.799Z,15.40
2022-10-08T11:47:57.977Z,15.40
2022-10-08T11:50:37.360Z,15.40
2022-10-08T11:53:09.714Z,15.40
2022-10-08T11:55:37.677Z,15.40
2022-10-08T11:58:15.601Z,15.40
2022-10-08T12:00:44.916Z,15.30
2022-10-08T12:03:23.256Z,15.40
2022-10-08T12:05:53.241Z,15.50
2022-10-08T12:08:50.529Z,15.60
2022-10-08T12:11:32.258Z,15.60
2022-10-08T12:14:19.901Z,15.70
2022-10-08T12:16:55.546Z,15.70
2022-10-08T12:19:34.933Z,15.70
2022-10-08T12:22:25.404Z,15.60
2022-10-08T12:24:55.083Z,15.60
2022-10-08T12:27:26.913Z,15.40
2022-10-08T12:29:55.791Z,15.30
2022-10-08T12:32:31.063Z,15.40
2022-10-08T12:34:59.317Z,15.50
2022-10-08T12:37:43.374Z,15.50
2022-10-08T12:40:50.571Z,15.60
2022-10-08T12:43:51.132Z,15.70
2022-10-08T12:46:23.732Z,15.60
2022-10-08T12:49:15.819Z,15.60
2022-10-08T12:52:14.312Z,15.70
2022-10-08T12:54:58.696Z,15.50
2022-10-08T12:57:33.808Z,15.40
2022-10-08T13:00:24.831Z,15.40
2022-10-08T13:03:14.974Z,15.40
2022-10-08T13:05:46.054Z,15.20
2022-10-08T13:08:35.968Z,15.20
2022-10-08T13:11:05.970Z,15.20
2022-10-08T13:13:41.053Z,15.20
2022-10-08T13:16:11.134Z,15.40
2022-10-08T13:18:41.736Z,15.40
2022-10-08T13:21:34.765Z,15.90
2022-10-08T13:24:11.405Z,15.50
2022-10-08T13:26:50.046Z,15.60
2022-10-08T13:29:22.954Z,15.70
2022-10-08T13:32:06.905Z,15.80
2022-10-08T13:34:39.562Z,15.80
2022-10-08T13:37:29.628Z,15.90
2022-10-08T13:40:12.950Z,15.90
2022-10-08T13:42:41.681Z,15.90
2022-10-08T13:45:19.623Z,15.90
2022-10-08T13:47:46.714Z,15.90
2022-10-08T13:50:14.116Z,16.00
2022-10-08T13:52:47.295Z,16.00
2022-10-08T13:55:30.401Z,16.10
2022-10-08T13:58:02.625Z,16.10
2022-10-08T14:00:32.006Z,16.10
2022-10-08T14:02:59.682Z,16.30
2022-10-08T14:05:28.747Z,16.30
2022-10-08T14:08:00.528Z,16.50
2022-10-08T14:10:27.444Z,16.60
2022-10-08T14:12:54.235Z,16.70
2022-10-08T14:15:21.291Z,16.80
2022-10-08T14:17:50.576Z,16.90
2022-10-08T14:20:17.577Z,16.90
2022-10-08T14:22:44.407Z,16.60
2022-10-08T14:25:15.976Z,16.50
2022-10-08T14:27:43.024Z,16.60
2022-10-08T14:30:11.763Z,16.60
2022-10-08T14:32:38.504Z,16.50
2022-10-08T14:35:06.840Z,16.50
2022-10-08T14:37:34.675Z,16.30
2022-10-08T14:40:01.793Z,16.20
2022-10-08T14:42:28.454Z,16.20
2022-10-08T14:44:55.156Z,16.10
2022-10-08T14:47:22.318Z,15.90
2022-10-08T14:49:49.031Z,15.80
2022-10-08T14:52:15.777Z,15.80
2022-10-08T14:54:42.733Z,15.90
2022-10-08T14:57:09.476Z,15.80
2022-10-08T14:59:40.084Z,15.80
2022-10-08T15:02:09.522Z,15.70
2022-10-08T15:04:36.252Z,15.60
2022-10-08T15:07:03.211Z,15.60
2022-10-08T15:09:31.373Z,15.90
2022-10-08T15:11:58.398Z,15.90
2022-10-08T15:14:25.304Z,15.90
2022-10-08T15:16:52.034Z,16.00
2022-10-08T15:19:23.461Z,15.90
2022-10-08T15:21:50.885Z,15.80
2022-10-08T15:24:17.731Z,15.80
2022-10-08T15:26:44.386Z,15.80
2022-10-08T15:29:11.809Z,15.70
2022-10-08T15:31:38.770Z,15.70
2022-10-08T15:34:05.829Z,15.60
2022-10-08T15:36:37.835Z,15.50
2022-10-08T15:39:12.058Z,15.40
2022-10-08T15:41:42.135Z,15.20
2022-10-08T15:44:25.467Z,15.10
2022-10-08T15:47:05.931Z,15.00
2022-10-08T15:49:41.905Z,15.00
2022-10-08T15:52:11.769Z,15.00
2022-10-08T15:54:39.385Z,15.00
2022-10-08T15:57:07.467Z,15.00
2022-10-08T15:59:34.224Z,14.80
2022-10-08T16:02:01.239Z,14.60
2022-10-08T16:04:28.312Z,14.50
2022-10-08T16:06:55.651Z,14.50
2022-10-08T16:09:22.897Z,14.40
2022-10-08T16:11:50.729Z,14.40
2022-10-08T16:14:18.631Z,14.40
2022-10-08T16:16:46.025Z,14.40
2022-10-08T16:19:17.934Z,14.50
2022-10-08T16:21:46.162Z,14.50
2022-10-08T16:24:13.618Z,14.50
2022-10-08T16:26:41.928Z,14.40
2022-10-08T16:29:12.855Z,14.20
2022-10-08T16:31:41.614Z,14.20
2022-10-08T16:34:13.022Z,14.20
2022-10-08T16:36:39.807Z,14.30
2022-10-08T16:39:08.215Z,14.20
2022-10-08T16:41:36.990Z,14.10
2022-10-08T16:44:11.805Z,14.00
2022-10-08T16:46:42.306Z,14.00
2022-10-08T16:49:35.078Z,13.80
2022-10-08T16:52:08.099Z,13.80
2022-10-08T16:54:34.886Z,13.80
2022-10-08T16:57:02.123Z,13.70
2022-10-08T16:59:30.066Z,13.60
2022-10-08T17:01:58.824Z,13.40
2022-10-08T17:04:27.678Z,13.50
2022-10-08T17:06:54.583Z,13.40
2022-10-08T17:09:21.245Z,13.30
2022-10-08T17:11:48.481Z,13.30
2022-10-08T17:14:15.173Z,13.30
2022-10-08T17:16:43.426Z,13.30
2022-10-08T17:19:10.887Z,13.30
2022-10-08T17:21:38.475Z,13.40
2022-10-08T17:24:05.816Z,13.30
2022-10-08T17:26:32.603Z,13.20
2022-10-08T17:29:04.546Z,13.50
2022-10-08T17:31:31.821Z,13.20
2022-10-08T17:33:59.743Z,13.00
2022-10-08T17:36:29.186Z,13.00
2022-10-08T17:38:59.516Z,13.40
2022-10-08T17:41:31.409Z,12.80
2022-10-08T17:44:00.970Z,12.80
2022-10-08T17:46:36.353Z,12.60
2022-10-08T17:49:03.739Z,12.50
2022-10-08T17:51:30.874Z,12.60
2022-10-08T17:54:00.457Z,12.50
2022-10-08T17:56:28.041Z,12.40
2022-10-08T17:58:54.826Z,12.70
2022-10-08T18:01:27.381Z,12.30
2022-10-08T18:04:02.756Z,12.70
2022-10-08T18:06:32.913Z,12.30
2022-10-08T18:09:05.324Z,12.20
2022-10-08T18:11:34.221Z,12.30
2022-10-08T18:14:02.644Z,12.20
2022-10-08T18:16:29.353Z,12.10
2022-10-08T18:18:56.213Z,12.40
2022-10-08T18:21:23.113Z,12.20
2022-10-08T18:23:50.154Z,12.20
2022-10-08T18:26:33.937Z,11.90
2022-10-08T18:29:09.882Z,11.80
2022-10-08T18:31:38.431Z,11.80
2022-10-08T18:34:08.659Z,11.40
2022-10-08T18:36:37.866Z,11.50
2022-10-08T18:39:16.791Z,11.40
2022-10-08T18:41:46.401Z,11.40
2022-10-08T18:44:16.377Z,11.30
2022-10-08T18:46:46.183Z,11.30
2022-10-08T18:49:15.585Z,11.00
2022-10-08T18:51:42.700Z,10.90
2022-10-08T18:54:10.539Z,10.80
2022-10-08T18:56:39.415Z,11.20
2022-10-08T18:59:08.485Z,10.90
2022-10-08T19:01:38.326Z,11.30
2022-10-08T19:04:07.437Z,11.10
2022-10-08T19:06:37.551Z,11.10
2022-10-08T19:09:05.274Z,11.80
2022-10-08T19:11:37.685Z,10.80
2022-10-08T19:14:10.159Z,11.20
2022-10-08T19:16:38.100Z,11.00
2022-10-08T19:19:12.801Z,10.70
2022-10-08T19:21:39.469Z,10.90
2022-10-08T19:24:08.126Z,10.60
2022-10-08T19:26:34.918Z,10.70
2022-10-08T19:29:01.625Z,10.40
2022-10-08T19:31:31.187Z,10.40
2022-10-08T19:34:04.785Z,10.40
2022-10-08T19:36:34.625Z,10.40
2022-10-08T19:39:04.884Z,10.30
2022-10-08T19:41:32.335Z,10.30
2022-10-08T19:44:00.026Z,10.40
2022-10-08T19:46:27.489Z,10.40
2022-10-08T19:48:56.911Z,10.40
2022-10-08T19:51:24.612Z,10.40
2022-10-08T19:53:51.548Z,10.40
2022-10-08T19:56:19.700Z,10.30
2022-10-08T19:58:48.821Z,10.30
2022-10-08T20:01:24.580Z,10.30
2022-10-08T20:03:56.015Z,10.20
2022-10-08T20:06:25.228Z,10.20
2022-10-08T20:08:57.272Z,10.10
2022-10-08T20:11:24.535Z,10.00
2022-10-08T20:13:52.250Z,10.10
2022-10-08T20:16:21.843Z,10.10
2022-10-08T20:18:51.997Z,10.10
2022-10-08T20:21:19.873Z,10.00
2022-10-08T20:23:47.278Z,9.90
2022-10-08T20:26:21.251Z,9.70
2022-10-08T20:28:50.672Z,9.90
2022-10-08T20:31:20.526Z,9.60
2022-10-08T20:33:48.252Z,9.50
2022-10-08T20:36:17.031Z,10.30
2022-10-08T20:38:44.016Z,9.70
2022-10-08T20:41:11.128Z,9.80
2022-10-08T20:43:39.109Z,9.60
2022-10-08T20:46:11.636Z,9.60
2022-10-08T20:48:42.160Z,9.80
2022-10-08T20:51:17.791Z,9.90
2022-10-08T20:53:53.541Z,9.60
2022-10-08T20:56:21.911Z,9.80
2022-10-08T20:58:49.085Z,9.80
2022-10-08T21:01:25.246Z,9.80
2022-10-08T21:03:52.900Z,10.00
2022-10-08T21:06:22.570Z,9.80
2022-10-08T21:08:51.549Z,10.40
2022-10-08T21:11:20.865Z,9.90
2022-10-08T21:13:48.271Z,9.70
2022-10-08T21:16:27.450Z,9.90
2022-10-08T21:18:56.443Z,9.80
2022-10-08T21:21:23.941Z,10.00
2022-10-08T21:23:50.852Z,10.90
2022-10-08T21:26:26.920Z,9.70
2022-10-08T21:28:56.655Z,9.80
2022-10-08T21:31:24.294Z,9.80
2022-10-08T21:33:52.805Z,10.30
2022-10-08T21:36:24.418Z,9.90
2022-10-08T21:38:51.200Z,9.90
2022-10-08T21:41:19.328Z,9.70
2022-10-08T21:43:50.998Z,9.70
2022-10-08T21:46:20.697Z,9.70
2022-10-08T21:48:48.571Z,10.30
2022-10-08T21:51:18.085Z,10.20
2022-10-08T21:53:46.924Z,9.50
2022-10-08T21:56:16.149Z,9.30
2022-10-08T21:58:45.505Z,10.20
2022-10-08T22:01:21.820Z,9.20
2022-10-08T22:03:48.988Z,9.30
2022-10-08T22:06:15.805Z,9.30
2022-10-08T22:08:42.512Z,9.30
2022-10-08T22:11:09.225Z,9.40
2022-10-08T22:13:35.918Z,9.50
2022-10-08T22:16:04.942Z,9.40
2022-10-08T22:18:33.266Z,9.40
2022-10-08T22:21:08.977Z,9.60
2022-10-08T22:23:36.130Z,9.70
2022-10-08T22:26:06.380Z,10.10
2022-10-08T22:28:33.757Z,9.80
2022-10-08T22:31:22.698Z,10.50
2022-10-08T22:33:49.823Z,9.80
2022-10-08T22:36:22.796Z,9.80
2022-10-08T22:38:50.148Z,9.80
2022-10-08T22:41:22.354Z,9.80
2022-10-08T22:43:49.763Z,10.10
2022-10-08T22:46:20.056Z,9.80
2022-10-08T22:48:47.528Z,9.60
2022-10-08T22:51:17.019Z,9.60
2022-10-08T22:53:44.348Z,9.50
2022-10-08T22:56:20.225Z,9.90
2022-10-08T22:58:48.010Z,9.60
2022-10-08T23:01:25.495Z,9.60
2022-10-08T23:03:53.357Z,9.70
2022-10-08T23:06:32.489Z,9.50
2022-10-08T23:09:07.516Z,9.70
2022-10-08T23:11:34.745Z,9.70
2022-10-08T23:14:02.267Z,9.60
2022-10-08T23:16:31.361Z,9.30
2022-10-08T23:19:00.667Z,10.30
2022-10-08T23:21:28.278Z,9.30
2022-10-08T23:23:55.757Z,9.10
2022-10-08T23:26:23.489Z,10.60
2022-10-08T23:28:52.573Z,10.30
2022-10-08T23:31:30.448Z,9.30
2022-10-08T23:33:58.024Z,9.40
2022-10-08T23:36:27.799Z,9.50
2022-10-08T23:38:56.564Z,9.50
2022-10-08T23:41:24.256Z,9.60
2022-10-08T23:43:52.484Z,9.30
2022-10-08T23:46:21.789Z,9.30
2022-10-08T23:48:49.372Z,9.10
2022-10-08T23:51:17.064Z,8.90
2022-10-08T23:53:44.803Z,9.00
2022-10-08T23:56:12.634Z,9.00
2022-10-08T23:58:39.637Z,10.00
